Time;durP1;ratioP1;P1;durP2;ratioP2;P2;SDS_P1;SDS_P2;PMS_P1;PMS_P2;Temp;Humidity;BMP_temperature;BMP_pressure;BME280_temperature;BME280_humidity;BME280_pressure;Samples;Min_cycle;Max_cycle;Signal;HPM_P1;HPM_P2
2023/02/06 00:01:43;;;;;;;29.90;11.50;;;;;;;-2.02;100.00;101917.13;107273;1281;58504;-84
2023/02/06 00:04:09;;;;;;;26.90;10.90;;;;;;;-2.04;100.00;101917.00;107200;1282;58579;-84
2023/02/06 00:06:35;;;;;;;29.30;10.90;;;;;;;-2.07;100.00;101918.48;107167;1283;58606;-84
2023/02/06 00:09:01;;;;;;;25.70;10.80;;;;;;;-2.06;100.00;101919.61;107190;1282;58212;-83
2023/02/06 00:11:26;;;;;;;27.70;11.20;;;;;;;-2.08;100.00;101923.21;107031;1283;59054;-84
2023/02/06 00:13:52;;;;;;;30.60;11.20;;;;;;;-2.10;100.00;101919.29;106799;1282;58359;-84
2023/02/06 00:16:30;;;;;;;30.00;11.40;;;;;;;-2.11;100.00;101920.64;106807;1283;72763;-84
2023/02/06 00:18:57;;;;;;;28.50;11.80;;;;;;;-2.11;100.00;101921.36;107195;1282;73167;-84
2023/02/06 00:21:24;;;;;;;28.50;10.20;;;;;;;-2.15;100.00;101920.37;107185;1282;61827;-84
2023/02/06 00:23:55;;;;;;;28.20;11.00;;;;;;;-2.13;100.00;101923.48;107227;1282;61398;-84
2023/02/06 00:26:21;;;;;;;27.20;10.50;;;;;;;-2.16;100.00;101921.52;107049;1282;73417;-84
2023/02/06 00:28:47;;;;;;;32.90;10.90;;;;;;;-2.16;100.00;101925.38;107198;1282;58214;-84
2023/02/06 00:31:12;;;;;;;30.70;11.40;;;;;;;-2.16;100.00;101926.96;107239;1283;58266;-84
2023/02/06 00:33:38;;;;;;;29.80;11.20;;;;;;;-2.17;100.00;101924.08;107165;1283;58137;-84
2023/02/06 00:36:04;;;;;;;35.40;12.60;;;;;;;-2.18;100.00;101919.20;107039;1282;58354;-85
2023/02/06 00:38:30;;;;;;;32.20;12.10;;;;;;;-2.19;100.00;101923.81;107203;1282;58408;-85
2023/02/06 00:40:56;;;;;;;27.60;11.00;;;;;;;-2.17;100.00;101928.10;107227;1281;58758;-84
2023/02/06 00:43:22;;;;;;;33.00;12.40;;;;;;;-2.19;100.00;101924.27;107199;1283;58186;-84
2023/02/06 00:45:55;;;;;;;30.80;11.60;;;;;;;-2.20;100.00;101926.14;107083;1283;209098;-84
2023/02/06 00:48:20;;;;;;;;;;;;;;;-2.22;100.00;101929.85;107232;1283;74781;-84
2023/02/06 00:50:50;;;;;;;31.10;12.40;;;;;;;-2.22;100.00;101930.52;107224;1282;58423;-85
2023/02/06 00:53:16;;;;;;;30.00;11.60;;;;;;;-2.24;100.00;101927.54;107170;1282;73713;-84
2023/02/06 00:55:41;;;;;;;36.00;13.10;;;;;;;-2.24;100.00;101930.48;107007;1281;58224;-85
2023/02/06 00:58:07;;;;;;;34.10;12.70;;;;;;;-2.26;100.00;101930.67;107219;1282;58276;-84
2023/02/06 01:00:33;;;;;;;34.50;13.50;;;;;;;-2.29;100.00;101929.15;107226;1282;58141;-84
2023/02/06 01:02:58;;;;;;;38.90;13.40;;;;;;;-2.31;100.00;101929.23;107188;1282;58263;-84
2023/02/06 01:05:24;;;;;;;36.50;13.60;;;;;;;-2.31;100.00;101927.96;107232;1282;58310;-84
2023/02/06 01:07:50;;;;;;;30.70;12.00;;;;;;;-2.34;100.00;101930.83;107202;1282;58504;-84
2023/02/06 01:10:15;;;;;;;33.40;13.10;;;;;;;-2.33;100.00;101929.71;107209;1282;58258;-84
2023/02/06 01:12:41;;;;;;;31.70;12.50;;;;;;;-2.34;100.00;101925.64;106749;1286;59161;-84
2023/02/06 01:15:10;;;;;;;35.60;12.60;;;;;;;-2.35;100.00;101922.00;107186;1282;58250;-84
2023/02/06 01:17:36;;;;;;;32.70;12.10;;;;;;;-2.34;100.00;101921.58;107138;1283;58139;-84
2023/02/06 01:20:03;;;;;;;31.50;12.10;;;;;;;-2.36;100.00;101916.47;107243;1282;58381;-84
2023/02/06 01:22:33;;;;;;;35.30;13.10;;;;;;;-2.37;100.00;101918.52;107200;1282;74432;-84
2023/02/06 01:24:58;;;;;;;33.40;13.20;;;;;;;-2.38;100.00;101919.44;106711;1283;73455;-84
2023/02/06 01:27:24;;;;;;;34.70;13.30;;;;;;;-2.37;100.00;101920.06;107196;1284;58276;-84
2023/02/06 01:29:49;;;;;;;32.20;12.50;;;;;;;-2.39;100.00;101922.37;107248;1281;58225;-84
2023/02/06 01:32:14;;;;;;;36.50;12.70;;;;;;;-2.41;100.00;101924.12;107232;1282;58243;-84
2023/02/06 01:34:40;;;;;;;33.00;13.00;;;;;;;-2.41;100.00;101926.12;107293;1282;58254;-84
2023/02/06 01:37:05;;;;;;;37.60;14.20;;;;;;;-2.39;100.00;101925.06;106644;1286;58338;-84
2023/02/06 01:39:31;;;;;;;51.60;18.70;;;;;;;-2.41;100.00;101922.95;107211;1282;58274;-84
2023/02/06 01:41:57;;;;;;;42.90;16.60;;;;;;;-2.42;100.00;101928.13;107228;1283;58236;-84
2023/02/06 01:44:25;;;;;;;39.10;14.30;;;;;;;-2.42;100.00;101935.85;107236;1282;58414;-84
2023/02/06 01:46:53;;;;;;;37.10;13.50;;;;;;;-2.43;100.00;101936.88;107068;1283;58355;-84
2023/02/06 01:49:33;;;;;;;38.50;13.50;;;;;;;-2.46;100.00;101939.02;107183;1281;73744;-84
2023/02/06 01:52:06;;;;;;;43.90;13.90;;;;;;;-2.47;100.00;101939.16;106875;1283;60458;-84
2023/02/06 01:54:32;;;;;;;42.20;14.40;;;;;;;-2.46;100.00;101941.91;107239;1282;60692;-84
2023/02/06 01:57:03;;;;;;;40.40;14.20;;;;;;;-2.50;100.00;101944.67;107276;1282;58217;-84
2023/02/06 01:59:29;;;;;;;38.90;13.60;;;;;;;-2.51;100.00;101940.16;107245;1282;74357;-84
2023/02/06 02:01:55;;;;;;;39.60;15.20;;;;;;;-2.52;100.00;101940.45;107248;1282;58318;-84
2023/02/06 02:04:24;;;;;;;45.20;15.80;;;;;;;-2.53;100.00;101940.06;107230;1282;59144;-84
2023/02/06 02:07:09;;;;;;;37.30;13.90;;;;;;;-2.58;100.00;101941.02;106941;1281;58956;-84
2023/02/06 02:09:35;;;;;;;40.00;16.00;;;;;;;-2.56;100.00;101944.55;107215;1281;73700;-84
2023/02/06 02:12:01;;;;;;;45.60;17.00;;;;;;;-2.58;100.00;101950.48;107247;1282;58276;-84
2023/02/06 02:14:27;;;;;;;46.00;16.80;;;;;;;-2.57;100.00;101949.36;107210;1282;58273;-84
2023/02/06 02:17:01;;;;;;;50.50;19.50;;;;;;;-2.57;100.00;101952.40;107197;1281;58599;-84
2023/02/06 02:19:45;;;;;;;51.50;19.10;;;;;;;-2.55;100.00;101947.42;107223;1281;59836;-84
2023/02/06 02:22:48;;;;;;;54.80;20.10;;;;;;;-2.53;100.00;101947.08;107215;1282;73738;-84
2023/02/06 02:25:47;;;;;;;72.50;25.40;;;;;;;-2.55;100.00;101945.45;107250;1282;73723;-84
2023/02/06 02:28:18;;;;;;;53.70;19.30;;;;;;;-2.53;100.00;101943.52;106875;1284;72383;-84
2023/02/06 02:30:47;;;;;;;54.40;19.30;;;;;;;-2.54;100.00;101944.48;107164;1285;61072;-84
2023/02/06 02:33:35;;;;;;;60.10;22.10;;;;;;;-2.55;100.00;101945.47;107286;1281;60121;-84
2023/02/06 02:36:31;;;;;;;47.90;17.70;;;;;;;-2.55;100.00;101952.70;107274;1283;74582;-84
2023/02/06 02:39:22;;;;;;;45.60;16.70;;;;;;;-2.55;100.00;101957.26;107204;1281;74160;-84
2023/02/06 02:42:08;;;;;;;51.70;17.50;;;;;;;-2.54;100.00;101961.73;107238;1282;72674;-84
2023/02/06 02:44:44;;;;;;;51.60;18.90;;;;;;;-2.53;100.00;101962.02;107194;1282;62691;-83
2023/02/06 02:47:13;;;;;;;45.60;17.30;;;;;;;-2.51;100.00;101966.95;106406;1282;59322;-84
2023/02/06 02:49:42;;;;;;;43.90;16.50;;;;;;;-2.49;100.00;101968.02;107192;1282;73667;-84
2023/02/06 02:52:07;;;;;;;47.00;17.20;;;;;;;-2.50;100.00;101969.52;106740;1283;73447;-84
2023/02/06 02:54:33;;;;;;;44.70;16.20;;;;;;;-2.52;100.00;101967.39;107230;1282;58270;-84
2023/02/06 02:57:08;;;;;;;42.10;15.90;;;;;;;-2.51;100.00;101966.44;107245;1282;58279;-84
2023/02/06 02:59:42;;;;;;;52.60;17.40;;;;;;;-2.53;100.00;101967.45;107233;1282;60645;-84
2023/02/06 03:02:30;;;;;;;45.70;17.30;;;;;;;-2.52;100.00;101968.42;107028;1282;74640;-84
2023/02/06 03:05:03;;;;;;;51.70;18.60;;;;;;;-2.54;100.00;101966.36;106744;1283;74458;-84
2023/02/06 03:08:18;;;;;;;48.30;16.70;;;;;;;-2.54;100.00;101964.05;107205;1282;73580;-84
2023/02/06 03:10:52;;;;;;;46.60;16.30;;;;;;;-2.56;100.00;101963.73;106343;1289;63058;-84
2023/02/06 03:13:46;;;;;;;48.80;18.20;;;;;;;-2.59;100.00;101963.09;106320;1292;60020;-84
2023/02/06 03:16:30;;;;;;;47.40;17.20;;;;;;;-2.61;100.00;101965.90;106275;1292;74558;-84
2023/02/06 03:19:23;;;;;;;50.80;18.50;;;;;;;-2.64;100.00;101969.67;106325;1289;73340;-84
2023/02/06 03:21:49;;;;;;;60.90;21.50;;;;;;;-2.63;100.00;101966.98;106361;1289;73746;-84
2023/02/06 03:24:22;;;;;;;56.50;19.60;;;;;;;-2.65;100.00;101969.95;106225;1289;58263;-84
2023/02/06 03:26:53;;;;;;;63.20;23.50;;;;;;;-2.67;100.00;101968.53;106348;1289;60239;-84
2023/02/06 03:29:19;;;;;;;58.50;20.80;;;;;;;-2.71;100.00;101968.04;106248;1289;73695;-84
2023/02/06 03:32:17;;;;;;;45.90;16.90;;;;;;;-2.71;100.00;101972.34;106323;1289;58360;-84
2023/02/06 03:34:49;;;;;;;51.70;18.00;;;;;;;-2.73;100.00;101974.73;106345;1289;72597;-84
2023/02/06 03:37:15;;;;;;;62.90;22.70;;;;;;;-2.74;100.00;101975.73;106046;1292;62857;-84
2023/02/06 03:39:41;;;;;;;58.80;19.70;;;;;;;-2.76;100.00;101977.33;106355;1289;58279;-84
2023/02/06 03:42:10;;;;;;;67.80;25.10;;;;;;;-2.77;100.00;101982.66;106318;1290;58317;-84
2023/02/06 03:44:41;;;;;;;54.90;20.40;;;;;;;-2.79;100.00;101976.36;106336;1289;73200;-84
2023/02/06 03:47:09;;;;;;;56.90;21.30;;;;;;;-2.82;100.00;101979.75;106467;1282;73538;-84
2023/02/06 03:49:38;;;;;;;57.30;19.70;;;;;;;-2.84;100.00;101979.27;106769;1281;63265;-84
2023/02/06 03:52:03;;;;;;;57.90;21.20;;;;;;;-2.88;100.00;101981.36;107199;1282;60121;-84
2023/02/06 03:54:31;;;;;;;55.80;20.40;;;;;;;-2.90;100.00;101981.59;107174;1282;58303;-84
2023/02/06 03:57:02;;;;;;;58.70;20.80;;;;;;;-2.96;100.00;101979.95;107249;1282;74216;-84
2023/02/06 03:59:30;;;;;;;55.70;19.50;;;;;;;-3.01;100.00;101980.09;107195;1282;72615;-84
2023/02/06 04:01:57;;;;;;;58.20;19.80;;;;;;;-3.06;100.00;101983.35;107177;1282;61702;-84
2023/02/06 04:04:35;;;;;;;53.10;19.00;;;;;;;-3.11;100.00;101986.21;107198;1282;60044;-84
2023/02/06 04:07:21;;;;;;;54.00;19.70;;;;;;;-3.16;100.00;101988.41;107223;1282;73831;-84
2023/02/06 04:09:47;;;;;;;60.30;20.80;;;;;;;-3.20;100.00;101995.06;107237;1282;73491;-84
2023/02/06 04:12:12;;;;;;;59.90;20.80;;;;;;;-3.24;100.00;101996.85;107234;1282;58252;-84
2023/02/06 04:14:38;;;;;;;64.40;21.70;;;;;;;-3.29;100.00;102001.86;106752;1282;58618;-84
2023/02/06 04:17:04;;;;;;;58.30;21.00;;;;;;;-3.32;100.00;102001.83;107243;1282;58406;-83
2023/02/06 04:19:30;;;;;;;67.00;23.80;;;;;;;-3.37;100.00;102007.36;107215;1282;58202;-84
2023/02/06 04:21:56;;;;;;;61.80;21.70;;;;;;;-3.42;100.00;102008.42;107236;1281;58236;-84
2023/02/06 04:24:21;;;;;;;54.50;19.60;;;;;;;-3.43;100.00;102008.91;107222;1282;62773;-84
2023/02/06 04:26:47;;;;;;;48.60;19.40;;;;;;;-3.51;100.00;102006.75;106761;1283;58462;-84
2023/02/06 04:29:12;;;;;;;57.10;18.30;;;;;;;-3.59;100.00;102007.42;107230;1282;58535;-84
2023/02/06 04:31:39;;;;;;;58.80;20.60;;;;;;;-3.68;100.00;102001.67;107235;1282;58325;-84
2023/02/06 04:34:04;;;;;;;69.60;23.60;;;;;;;-3.77;100.00;102004.02;107199;1281;58177;-84
2023/02/06 04:36:30;;;;;;;74.50;27.40;;;;;;;-3.87;100.00;102005.09;107241;1282;58134;-84
2023/02/06 04:38:55;;;;;;;72.80;27.20;;;;;;;-3.94;100.00;102006.90;107017;1282;74675;-84
2023/02/06 04:41:21;;;;;;;76.00;27.00;;;;;;;-4.02;100.00;102010.04;107268;1282;58345;-84
2023/02/06 04:43:46;;;;;;;68.90;24.90;;;;;;;-4.09;100.00;102008.04;107024;1283;59125;-84
2023/02/06 04:46:12;;;;;;;76.80;27.90;;;;;;;-4.19;100.00;102014.42;106806;1283;58291;-84
2023/02/06 04:48:37;;;;;;;68.70;24.90;;;;;;;-4.26;100.00;102018.55;107249;1281;58249;-84
2023/02/06 04:51:03;;;;;;;62.20;23.20;;;;;;;-4.35;100.00;102022.83;107232;1282;74136;-84
2023/02/06 04:53:29;;;;;;;76.90;26.90;;;;;;;-4.43;100.00;102026.42;107210;1281;58496;-84
2023/02/06 04:56:01;;;;;;;72.80;26.90;;;;;;;-4.50;100.00;102033.17;107197;1281;59168;-84
2023/02/06 04:58:27;;;;;;;72.00;26.20;;;;;;;-4.55;100.00;102036.57;106679;1282;60188;-83
2023/02/06 05:00:52;;;;;;;79.10;27.30;;;;;;;-4.58;100.00;102033.66;107229;1282;58569;-84
2023/02/06 05:03:18;;;;;;;76.20;24.90;;;;;;;-4.63;100.00;102028.59;107205;1282;58318;-84
2023/02/06 05:05:44;;;;;;;64.30;23.60;;;;;;;-4.69;100.00;102030.69;107186;1281;58578;-84
2023/02/06 05:08:09;;;;;;;61.80;22.70;;;;;;;-4.77;100.00;102032.42;107274;1282;58160;-83
2023/02/06 05:10:34;;;;;;;65.20;23.10;;;;;;;-4.80;100.00;102038.92;107234;1281;74710;-83
2023/02/06 05:13:00;;;;;;;61.60;21.40;;;;;;;-4.82;100.00;102038.78;107238;1281;58284;-84
2023/02/06 05:15:25;;;;;;;57.10;21.30;;;;;;;-4.87;100.00;102038.45;106878;1282;58563;-84
2023/02/06 05:17:51;;;;;;;58.30;19.40;;;;;;;-4.90;100.00;102041.69;107253;1281;58446;-84
2023/02/06 05:20:17;;;;;;;59.80;22.00;;;;;;;-4.91;100.00;102047.38;107245;1281;58263;-84
2023/02/06 05:22:42;;;;;;;57.00;21.00;;;;;;;-4.93;100.00;102050.34;106790;1282;74184;-84
2023/02/06 05:25:08;;;;;;;55.00;20.00;;;;;;;-4.93;100.00;102051.73;107199;1281;58227;-83
2023/02/06 05:27:33;;;;;;;54.70;19.90;;;;;;;-4.96;100.00;102054.79;106702;1281;58321;-84
2023/02/06 05:29:59;;;;;;;48.80;18.50;;;;;;;-4.97;100.00;102048.52;107262;1281;58234;-83
2023/02/06 05:32:25;;;;;;;49.00;18.00;;;;;;;-4.94;100.00;102048.65;106841;1283;58464;-84
2023/02/06 05:34:50;;;;;;;46.20;19.00;;;;;;;-4.90;100.00;102050.80;107027;1281;73339;-84
2023/02/06 05:37:16;;;;;;;54.90;19.20;;;;;;;-4.87;100.00;102047.36;107227;1282;58507;-84
2023/02/06 05:39:41;;;;;;;56.10;20.30;;;;;;;-4.82;100.00;102047.88;107229;1281;58371;-84
2023/02/06 05:42:07;;;;;;;56.70;18.50;;;;;;;-4.74;100.00;102045.49;107189;1281;58234;-84
2023/02/06 05:44:32;;;;;;;48.80;17.60;;;;;;;-4.64;100.00;102046.95;107257;1281;58312;-84
2023/02/06 05:46:58;;;;;;;52.00;16.90;;;;;;;-4.54;100.00;102046.80;106886;1281;58608;-83
2023/02/06 05:49:23;;;;;;;44.10;15.40;;;;;;;-4.40;100.00;102048.79;107238;1281;58317;-84
2023/02/06 05:51:49;;;;;;;42.80;14.40;;;;;;;-4.24;100.00;102049.26;106754;1283;58397;-84
2023/02/06 05:54:24;;;;;;;47.20;16.90;;;;;;;-4.03;100.00;102043.86;107211;1282;58324;-84
2023/02/06 05:56:49;;;;;;;57.20;18.40;;;;;;;-3.78;100.00;102042.11;106809;1282;73068;-84
2023/02/06 05:59:15;;;;;;;44.70;15.00;;;;;;;-3.44;100.00;102044.80;106859;1283;58390;-85
2023/02/06 06:01:43;;;;;;;43.70;14.90;;;;;;;-3.08;100.00;102049.93;107295;1281;58353;-84
2023/02/06 06:04:08;;;;;;;39.00;13.20;;;;;;;-2.52;100.00;102052.56;107223;1282;58185;-83
2023/02/06 06:06:34;;;;;;;35.20;13.50;;;;;;;-2.00;100.00;102055.44;107313;1281;58322;-85
2023/02/06 06:09:04;;;;;;;36.90;12.70;;;;;;;-1.45;100.00;102055.00;107215;1282;58253;-84
2023/02/06 06:11:32;;;;;;;29.70;11.00;;;;;;;-0.88;100.00;102053.67;107260;1282;62770;-85
2023/02/06 06:13:58;;;;;;;31.90;12.00;;;;;;;-0.38;100.00;102056.91;106753;1281;60270;-85
2023/02/06 06:16:23;;;;;;;30.40;11.70;;;;;;;0.22;100.00;102060.97;107207;1281;58228;-85
2023/02/06 06:18:49;;;;;;;30.90;11.80;;;;;;;0.83;100.00;102056.70;107226;1282;58475;-86
2023/02/06 06:21:14;;;;;;;27.50;12.30;;;;;;;1.51;100.00;102061.14;107215;1282;58335;-85
2023/02/06 06:23:40;;;;;;;25.10;10.90;;;;;;;2.34;100.00;102065.80;107242;1281;58313;-85
2023/02/06 06:26:06;;;;;;;27.40;11.10;;;;;;;2.72;100.00;102068.54;106996;1283;58344;-85
2023/02/06 06:28:33;;;;;;;25.60;12.00;;;;;;;3.28;100.00;102069.13;107280;1282;72263;-86
2023/02/06 06:31:04;;;;;;;27.80;11.30;;;;;;;3.94;100.00;102070.91;107236;1281;72551;-86
2023/02/06 06:33:30;;;;;;;26.60;12.80;;;;;;;4.19;99.80;102074.27;107231;1282;61998;-83
2023/02/06 06:35:55;;;;;;;26.30;11.60;;;;;;;4.23;98.64;102076.95;107228;1281;58260;-86
2023/02/06 06:38:21;;;;;;;26.90;11.80;;;;;;;4.33;97.19;102078.84;106759;1285;58354;-86
2023/02/06 06:40:47;;;;;;;24.60;12.00;;;;;;;5.06;95.07;102072.34;107235;1281;58634;-86
2023/02/06 06:43:12;;;;;;;22.70;10.90;;;;;;;5.67;87.52;102074.30;107209;1281;58203;-86
2023/02/06 06:45:38;;;;;;;20.10;10.50;;;;;;;6.29;82.34;102075.85;107324;1281;58214;-86
2023/02/06 06:48:04;;;;;;;23.30;11.70;;;;;;;6.84;78.61;102073.40;106833;1283;58528;-86
2023/02/06 06:50:29;;;;;;;22.90;10.80;;;;;;;7.19;73.42;102073.06;107082;1282;58251;-87
2023/02/06 06:52:55;;;;;;;21.20;11.20;;;;;;;7.47;67.98;102071.50;106809;1282;58660;-87
2023/02/06 06:55:21;;;;;;;19.30;9.10;;;;;;;8.19;65.86;102070.84;106737;1283;58692;-87
2023/02/06 06:57:47;;;;;;;19.00;9.50;;;;;;;8.70;60.84;102065.54;107224;1281;58348;-87
2023/02/06 07:00:13;;;;;;;16.10;9.10;;;;;;;8.53;57.84;102067.23;107112;1283;58236;-88
2023/02/06 07:02:39;;;;;;;17.70;9.10;;;;;;;8.86;58.70;102062.95;107228;1282;73181;-86
2023/02/06 07:05:05;;;;;;;17.20;9.50;;;;;;;9.33;56.89;102061.94;106833;1285;58204;-87
2023/02/06 07:07:31;;;;;;;18.20;9.20;;;;;;;9.48;53.44;102059.88;107284;1281;58120;-86
2023/02/06 07:09:58;;;;;;;15.80;9.10;;;;;;;9.48;53.51;102058.63;107303;1281;58218;-87
2023/02/06 07:12:25;;;;;;;19.70;9.40;;;;;;;10.09;52.73;102060.09;107304;1281;58322;-87
2023/02/06 07:14:51;;;;;;;19.10;10.00;;;;;;;10.10;48.12;102061.41;107026;1282;58448;-86
2023/02/06 07:17:16;;;;;;;18.20;9.10;;;;;;;9.66;48.79;102068.45;107243;1282;58132;-86
2023/02/06 07:19:46;;;;;;;19.20;9.60;;;;;;;9.79;48.30;102066.92;106790;1285;58346;-86
2023/02/06 07:22:13;;;;;;;16.70;8.60;;;;;;;9.87;45.63;102067.54;106794;1282;74669;-88
2023/02/06 07:24:39;;;;;;;16.90;9.10;;;;;;;9.35;45.69;102067.67;107295;1282;74263;-87
2023/02/06 07:27:05;;;;;;;14.80;8.00;;;;;;;9.12;47.31;102075.23;107272;1281;58312;-88
2023/02/06 07:29:31;;;;;;;19.10;9.50;;;;;;;9.58;46.40;102068.29;106779;1282;58581;-87
2023/02/06 07:31:57;;;;;;;14.60;8.80;;;;;;;9.44;45.58;102067.80;106857;1281;58335;-87
2023/02/06 07:34:23;;;;;;;18.00;8.40;;;;;;;9.35;45.54;102070.41;107096;1282;58376;-87
2023/02/06 07:36:48;;;;;;;13.90;7.60;;;;;;;9.12;45.94;102068.90;107268;1281;58323;-87
2023/02/06 07:39:14;;;;;;;15.30;8.60;;;;;;;9.47;44.77;102065.33;107270;1282;59038;-86
2023/02/06 07:41:40;;;;;;;14.40;8.30;;;;;;;9.44;44.31;102065.23;106776;1281;59020;-87
2023/02/06 07:44:06;;;;;;;13.80;8.20;;;;;;;9.38;46.13;102061.70;107280;1282;58083;-87
2023/02/06 07:46:33;;;;;;;13.60;7.90;;;;;;;10.22;45.78;102060.36;107105;1283;58450;-87
2023/02/06 07:48:59;;;;;;;13.80;8.30;;;;;;;10.39;44.63;102059.47;107239;1281;58225;-87
2023/02/06 07:51:24;;;;;;;15.00;8.20;;;;;;;10.57;42.73;102062.20;107285;1281;58514;-87
2023/02/06 07:53:50;;;;;;;14.40;8.70;;;;;;;10.25;42.38;102057.27;107102;1281;58230;-88
2023/02/06 07:56:18;;;;;;;15.00;8.70;;;;;;;10.03;42.93;102053.68;107277;1281;58215;-87
2023/02/06 07:58:46;;;;;;;14.70;8.40;;;;;;;10.19;43.78;102052.56;107123;1283;58341;-88
2023/02/06 08:01:12;;;;;;;14.40;8.20;;;;;;;10.58;42.80;102053.77;107250;1281;58330;-87
2023/02/06 08:03:37;;;;;;;14.70;7.60;;;;;;;10.73;41.17;102052.49;107279;1281;58260;-87
2023/02/06 08:06:14;;;;;;;11.70;7.10;;;;;;;10.39;41.36;102051.84;107286;1281;58298;-87
2023/02/06 08:08:41;;;;;;;16.60;8.30;;;;;;;10.39;43.31;102056.03;107276;1281;74753;-87
2023/02/06 08:11:09;;;;;;;12.10;7.80;;;;;;;11.50;41.09;102053.34;107092;1282;73882;-87
2023/02/06 08:13:35;;;;;;;12.50;7.00;;;;;;;11.31;41.16;102051.26;106713;1281;71079;-88
2023/02/06 08:16:11;;;;;;;13.40;7.90;;;;;;;11.59;39.98;102053.69;107082;1285;58237;-87
2023/02/06 08:18:38;;;;;;;11.20;6.70;;;;;;;11.03;39.58;102055.95;107296;1282;60216;-89
2023/02/06 08:21:08;;;;;;;13.40;6.50;;;;;;;11.30;39.67;102050.80;107297;1282;74886;-87
2023/02/06 08:23:34;;;;;;;10.50;6.60;;;;;;;11.13;39.90;102053.51;107286;1282;71759;-88
2023/02/06 08:26:07;;;;;;;12.40;7.40;;;;;;;11.59;40.49;102053.98;107281;1282;58300;-87
2023/02/06 08:28:34;;;;;;;10.40;6.50;;;;;;;11.83;38.48;102055.09;106795;1283;61231;-87
2023/02/06 08:31:06;;;;;;;11.10;6.20;;;;;;;11.53;38.60;102049.00;107272;1281;60955;-87
2023/02/06 08:33:32;;;;;;;9.80;6.20;;;;;;;11.32;38.90;102051.55;107230;1281;73566;-86
2023/02/06 08:36:01;;;;;;;13.50;6.30;;;;;;;11.08;40.07;102051.77;107303;1282;58270;-85
2023/02/06 08:38:27;;;;;;;9.80;6.40;;;;;;;11.37;38.65;102055.10;107080;1282;72209;-86
2023/02/06 08:40:52;;;;;;;11.60;7.10;;;;;;;11.10;38.73;102054.36;107312;1281;58314;-86
2023/02/06 08:43:18;;;;;;;12.80;7.40;;;;;;;10.54;39.69;102054.80;107234;1281;58282;-86
2023/02/06 08:45:48;;;;;;;11.30;6.80;;;;;;;10.04;40.26;102050.35;106754;1283;58343;-86
2023/02/06 08:48:13;;;;;;;13.40;7.40;;;;;;;9.49;40.35;102046.05;107341;1281;72238;-85
2023/02/06 08:50:39;;;;;;;15.10;8.00;;;;;;;7.72;41.94;102054.30;107255;1281;58678;-86
2023/02/06 08:53:05;;;;;;;18.60;8.60;;;;;;;6.41;44.42;102057.02;106819;1282;58253;-86
2023/02/06 08:55:30;;;;;;;18.50;7.90;;;;;;;5.34;46.61;102057.53;107311;1282;58205;-85
2023/02/06 08:57:56;;;;;;;17.70;8.30;;;;;;;4.83;47.81;102062.10;106920;1282;58546;-84
2023/02/06 09:00:21;;;;;;;16.90;7.90;;;;;;;4.11;49.21;102062.52;107264;1281;72597;-84
2023/02/06 09:02:47;;;;;;;19.90;7.30;;;;;;;3.50;50.66;102056.14;107270;1281;58275;-84
2023/02/06 09:05:14;;;;;;;18.80;8.50;;;;;;;3.03;51.69;102054.16;107283;1281;58319;-82
2023/02/06 09:07:40;;;;;;;21.20;9.10;;;;;;;2.51;54.04;102051.33;107328;1282;58248;-82
2023/02/06 09:10:06;;;;;;;19.90;8.10;;;;;;;2.25;55.85;102054.21;107301;1281;59061;-83
2023/02/06 09:12:32;;;;;;;18.90;7.80;;;;;;;2.17;57.14;102051.40;107307;1282;58193;-82
2023/02/06 09:14:57;;;;;;;15.60;6.90;;;;;;;2.12;57.93;102050.67;107107;1281;58238;-83
2023/02/06 09:17:23;;;;;;;21.30;8.50;;;;;;;2.10;58.79;102044.67;106865;1285;58428;-82
2023/02/06 09:19:48;;;;;;;19.90;7.90;;;;;;;1.92;59.95;102051.48;106793;1285;73667;-82
2023/02/06 09:22:14;;;;;;;20.40;8.40;;;;;;;1.59;61.27;102044.92;106809;1285;58340;-82
2023/02/06 09:24:40;;;;;;;18.20;7.80;;;;;;;1.41;62.66;102039.71;106795;1285;58285;-82
2023/02/06 09:27:06;;;;;;;21.30;8.30;;;;;;;1.20;65.60;102038.18;106821;1285;58416;-81
2023/02/06 09:29:31;;;;;;;17.90;7.70;;;;;;;1.11;68.58;102035.80;106759;1285;58336;-82
2023/02/06 09:31:57;;;;;;;22.60;7.80;;;;;;;0.98;71.89;102031.88;106406;1285;58570;-82
2023/02/06 09:34:24;;;;;;;19.00;7.70;;;;;;;0.95;73.42;102034.73;106777;1285;60407;-82
2023/02/06 09:36:51;;;;;;;20.40;7.70;;;;;;;0.84;76.24;102032.83;106742;1285;61096;-81
2023/02/06 09:39:17;;;;;;;20.90;8.10;;;;;;;0.70;81.87;102031.14;106765;1285;74743;-81
2023/02/06 09:41:46;;;;;;;19.60;7.90;;;;;;;0.78;82.31;102034.69;106824;1285;58249;-81
2023/02/06 09:44:17;;;;;;;21.30;8.50;;;;;;;0.82;81.42;102031.91;106420;1286;72509;-82
2023/02/06 09:47:05;;;;;;;18.80;7.90;;;;;;;0.75;83.79;102033.45;106737;1285;61919;-81
2023/02/06 09:49:48;;;;;;;22.30;9.00;;;;;;;0.76;86.11;102035.29;107190;1281;59964;-82
2023/02/06 09:52:28;;;;;;;26.10;10.10;;;;;;;0.76;86.86;102032.30;107242;1282;73517;-81
2023/02/06 09:55:09;;;;;;;19.20;8.10;;;;;;;0.72;89.69;102027.73;107034;1283;73601;-82
2023/02/06 09:57:40;;;;;;;18.90;7.30;;;;;;;0.82;89.31;102028.04;107267;1281;73550;-81
2023/02/06 10:00:26;;;;;;;20.70;7.70;;;;;;;0.92;88.52;102025.62;107225;1281;61015;-82
2023/02/06 10:03:42;;;;;;;21.70;7.70;;;;;;;0.87;88.57;102027.59;107223;1282;60958;-81
2023/02/06 10:06:25;;;;;;;17.30;6.90;;;;;;;0.91;88.99;102021.80;106323;1290;74378;-82
2023/02/06 10:09:01;;;;;;;18.70;7.30;;;;;;;0.90;90.03;102017.45;106344;1289;73879;-81
2023/02/06 10:11:46;;;;;;;16.90;6.30;;;;;;;0.87;89.93;102012.96;106385;1289;73463;-82
2023/02/06 10:14:23;;;;;;;15.60;6.50;;;;;;;0.84;90.43;102010.36;106381;1289;61889;-82
2023/02/06 10:16:54;;;;;;;17.90;6.80;;;;;;;0.79;93.33;102011.41;106387;1289;60937;-82
2023/02/06 10:19:38;;;;;;;14.40;6.00;;;;;;;0.79;96.01;102007.00;106384;1289;74488;-82
2023/02/06 10:22:11;;;;;;;16.80;7.00;;;;;;;0.82;99.05;102005.62;106371;1289;73377;-82
2023/02/06 10:24:46;;;;;;;17.00;7.00;;;;;;;0.86;100.00;102006.65;106391;1289;73452;-83
2023/02/06 10:27:14;;;;;;;17.80;6.70;;;;;;;1.10;100.00;102002.45;106288;1290;59782;-83
2023/02/06 10:29:41;;;;;;;17.40;6.80;;;;;;;1.29;100.00;102007.34;106274;1289;59982;-83
2023/02/06 10:32:37;;;;;;;15.50;6.40;;;;;;;1.43;98.59;102006.12;106256;1289;73380;-83
2023/02/06 10:35:24;;;;;;;15.50;6.30;;;;;;;1.33;98.81;102007.67;106087;1289;72545;-83
2023/02/06 10:38:04;;;;;;;14.40;6.20;;;;;;;1.31;97.13;102010.22;106193;1290;72382;-83
2023/02/06 10:40:48;;;;;;;14.00;5.50;;;;;;;1.27;94.67;102012.17;106343;1289;61786;-83
2023/02/06 10:43:19;;;;;;;;;;;;;;;1.16;98.08;102007.54;107308;1282;61232;-83
2023/02/06 10:46:19;;;;;;;14.90;5.70;;;;;;;1.31;98.62;102008.07;107251;1281;73649;-84
2023/02/06 10:48:58;;;;;;;17.20;6.80;;;;;;;1.41;98.96;102003.27;106383;1289;72514;-84
2023/02/06 10:51:29;;;;;;;16.20;7.20;;;;;;;1.39;100.00;102003.67;106065;1289;72361;-84
2023/02/06 10:54:01;;;;;;;15.50;6.40;;;;;;;1.48;100.00;102004.30;106342;1289;61929;-82
2023/02/06 10:56:38;;;;;;;20.50;6.60;;;;;;;1.42;100.00;102009.68;106333;1289;60966;-82
2023/02/06 10:59:21;;;;;;;21.90;7.70;;;;;;;1.37;100.00;102010.96;106399;1289;74609;-82
2023/02/06 11:01:50;;;;;;;20.40;8.40;;;;;;;1.32;100.00;102014.30;106404;1290;73702;-82
2023/02/06 11:04:49;;;;;;;18.10;7.90;;;;;;;1.27;100.00;102019.24;106370;1289;72458;-83
2023/02/06 11:07:23;;;;;;;23.90;9.10;;;;;;;1.14;100.00;102008.41;105828;1296;62004;-83
2023/02/06 11:09:50;;;;;;;19.40;8.10;;;;;;;1.15;100.00;102013.29;105797;1296;58547;-83
2023/02/06 11:12:34;;;;;;;20.40;7.90;;;;;;;1.04;100.00;102014.95;105850;1296;74836;-83
2023/02/06 11:15:26;;;;;;;22.10;7.70;;;;;;;1.07;99.99;102011.63;105731;1296;73202;-83